createdAt,value
2019-02-22T00:01:04.110Z,78.63
2019-02-22T00:02:14.084Z,78.53
2019-02-22T00:03:23.032Z,78.59
2019-02-22T00:04:32.464Z,78.5
2019-02-22T00:05:42.418Z,78.73
2019-02-22T00:06:52.116Z,78.59
2019-02-22T00:08:01.308Z,78.59
2019-02-22T00:09:11.255Z,78.73
2019-02-22T00:10:20.967Z,78.53
2019-02-22T00:11:31.010Z,78.83
2019-02-22T00:12:40.700Z,78.63
2019-02-22T00:13:50.396Z,78.69
2019-02-22T00:14:59.350Z,78.59
2019-02-22T00:16:08.796Z,78.63
2019-02-22T00:17:18.255Z,78.59
2019-02-22T00:18:27.693Z,78.69
2019-02-22T00:19:36.907Z,78.59
2019-02-22T00:20:46.355Z,78.69
2019-02-22T00:21:56.048Z,78.78
2019-02-22T00:23:06.006Z,78.59
2019-02-22T00:24:15.698Z,78.5
2019-02-22T00:25:24.894Z,78.78
2019-02-22T00:26:34.839Z,78.5
2019-02-22T00:27:44.784Z,78.5
2019-02-22T00:28:54.483Z,78.59
2019-02-22T00:30:04.455Z,78.59
2019-02-22T00:31:14.406Z,78.69
2019-02-22T00:32:24.094Z,78.69
2019-02-22T00:33:33.811Z,78.5
2019-02-22T00:34:43.293Z,78.59
2019-02-22T00:35:53.466Z,78.59
2019-02-22T00:37:03.128Z,78.4
2019-02-22T00:38:13.551Z,78.59
2019-02-22T00:39:23.512Z,78.69
2019-02-22T00:40:32.953Z,78.5
2019-02-22T00:41:42.393Z,78.59
2019-02-22T00:42:52.879Z,79.07
2019-02-22T00:44:01.828Z,79.07
2019-02-22T00:45:11.782Z,78.98
2019-02-22T00:46:21.526Z,78.78
2019-02-22T00:47:30.971Z,78.59
2019-02-22T00:48:40.697Z,78.78
2019-02-22T00:49:50.142Z,78.78
2019-02-22T00:50:59.585Z,79.07
2019-02-22T00:52:09.023Z,78.98
2019-02-22T00:53:18.729Z,78.5
2019-02-22T00:54:28.661Z,78.4
2019-02-22T00:55:38.371Z,78.88
2019-02-22T00:56:48.314Z,79.07
2019-02-22T00:57:57.810Z,78.98
2019-02-22T00:59:07.508Z,78.98
2019-02-22T01:00:16.947Z,78.98
2019-02-22T01:01:26.734Z,78.59
2019-02-22T01:02:36.174Z,79.07
2019-02-22T01:03:46.124Z,78.59
2019-02-22T01:04:55.336Z,78.98
2019-02-22T01:06:04.784Z,78.98
2019-02-22T01:07:14.728Z,78.98
2019-02-22T01:08:24.163Z,78.98
2019-02-22T01:09:33.846Z,79.17
2019-02-22T01:10:49.814Z,78.98
2019-02-22T01:11:59.014Z,78.98
2019-02-22T01:13:08.701Z,78.98
2019-02-22T01:14:18.398Z,78.78
2019-02-22T01:15:27.841Z,78.98
2019-02-22T01:16:37.539Z,79.07
2019-02-22T01:17:47.232Z,79.07
2019-02-22T01:18:56.942Z,79.07
2019-02-22T01:20:06.963Z,78.78
2019-02-22T01:21:16.911Z,78.88
2019-02-22T01:22:26.696Z,78.98
2019-02-22T01:23:36.657Z,78.78
2019-02-22T01:24:46.111Z,79.07
2019-02-22T01:25:56.076Z,78.88
2019-02-22T01:27:05.777Z,78.88
2019-02-22T01:28:15.716Z,78.78
2019-02-22T01:29:25.421Z,78.98
2019-02-22T01:30:35.376Z,78.69
2019-02-22T01:31:45.094Z,78.98
2019-02-22T01:32:55.077Z,78.69
2019-02-22T01:34:05.099Z,78.59
2019-02-22T01:35:14.875Z,78.69
2019-02-22T01:36:24.603Z,78.59
2019-02-22T01:37:34.054Z,78.78
2019-02-22T01:38:43.246Z,78.59
2019-02-22T01:39:53.186Z,78.88
2019-02-22T01:41:02.971Z,78.88
2019-02-22T01:42:12.680Z,78.78
2019-02-22T01:43:22.617Z,78.59
2019-02-22T01:44:32.568Z,78.88
2019-02-22T01:45:42.533Z,78.88
2019-02-22T01:46:52.228Z,78.88
2019-02-22T01:48:02.166Z,78.88
2019-02-22T01:49:11.858Z,78.78
2019-02-22T01:50:21.553Z,78.78
2019-02-22T01:51:31.002Z,78.88
2019-02-22T01:52:40.444Z,79.07
2019-02-22T01:53:50.384Z,78.88
2019-02-22T01:55:01.788Z,78.78
2019-02-22T01:56:11.489Z,78.69
2019-02-22T01:57:20.960Z,78.59
2019-02-22T01:58:30.944Z,78.78
2019-02-22T01:59:51.124Z,78.78
2019-02-22T02:01:01.064Z,78.88
2019-02-22T02:02:10.536Z,78.98
2019-02-22T02:03:20.260Z,78.78
2019-02-22T02:04:30.211Z,79.65
2019-02-22T02:05:39.903Z,79.46
2019-02-22T02:06:49.848Z,79.36
2019-02-22T02:07:59.053Z,79.36
2019-02-22T02:09:08.243Z,79.27
2019-02-22T02:10:18.193Z,79.36
2019-02-22T02:11:27.126Z,79.46
2019-02-22T02:12:36.825Z,79.36
2019-02-22T02:13:46.600Z,79.27
2019-02-22T02:14:56.289Z,79.65
2019-02-22T02:16:05.976Z,79.75
2019-02-22T02:17:17.683Z,79.75
2019-02-22T02:18:27.801Z,79.75
2019-02-22T02:19:37.769Z,80.04
2019-02-22T02:20:47.524Z,80.04
2019-02-22T02:21:57.575Z,79.94
2019-02-22T02:23:07.344Z,80.04
2019-02-22T02:24:17.306Z,79.94
2019-02-22T02:25:27.253Z,79.65
2019-02-22T02:26:36.949Z,79.84
2019-02-22T02:27:46.657Z,79.84
2019-02-22T02:28:56.354Z,79.94
2019-02-22T02:30:06.317Z,80.42
2019-02-22T02:31:16.363Z,79.94
2019-02-22T02:32:26.325Z,80.13
2019-02-22T02:33:36.026Z,80.22
2019-02-22T02:34:45.714Z,80.22
2019-02-22T02:35:55.682Z,80.13
2019-02-22T02:37:05.120Z,80.22
2019-02-22T02:38:15.081Z,80.13
2019-02-22T02:39:25.031Z,79.94
2019-02-22T02:40:35.072Z,80.13
2019-02-22T02:41:44.773Z,80.32
2019-02-22T02:42:54.773Z,80.22
2019-02-22T02:44:04.790Z,80.04
2019-02-22T02:45:14.851Z,80.42
2019-02-22T02:46:24.547Z,79.75
2019-02-22T02:47:34.496Z,79.84
2019-02-22T02:48:44.201Z,79.84
2019-02-22T02:49:54.140Z,79.84
2019-02-22T02:51:03.832Z,80.04
2019-02-22T02:52:13.773Z,80.04
2019-02-22T02:53:23.753Z,79.84
2019-02-22T02:54:33.722Z,80.04
2019-02-22T02:55:43.420Z,79.84
2019-02-22T02:56:53.122Z,79.94
2019-02-22T02:58:03.108Z,79.84
2019-02-22T02:59:12.302Z,79.84
2019-02-22T03:00:22.263Z,80.32
2019-02-22T03:01:32.224Z,80.42
2019-02-22T03:02:42.183Z,80.32
2019-02-22T03:03:51.670Z,79.75
2019-02-22T03:05:01.390Z,79.84
2019-02-22T03:06:10.894Z,79.65
2019-02-22T03:07:20.600Z,79.84
2019-02-22T03:08:30.545Z,79.84
2019-02-22T03:09:40.005Z,79.94
2019-02-22T03:10:49.975Z,80.04
2019-02-22T03:11:59.446Z,80.13
2019-02-22T03:13:08.929Z,79.94
2019-02-22T03:14:18.394Z,79.84
2019-02-22T03:15:28.155Z,80.32
2019-02-22T03:16:37.353Z,80.22
2019-02-22T03:17:47.045Z,80.71
2019-02-22T03:18:56.987Z,80.9
2019-02-22T03:20:06.701Z,80.99
2019-02-22T03:21:16.422Z,80.51
2019-02-22T03:22:26.142Z,80.8
2019-02-22T03:23:35.851Z,80.42
2019-02-22T03:24:45.806Z,80.9
2019-02-22T03:25:58.618Z,80.9
2019-02-22T03:27:08.605Z,80.99
2019-02-22T03:28:18.592Z,80.9
2019-02-22T03:29:28.539Z,80.71
2019-02-22T03:30:38.014Z,80.8
2019-02-22T03:31:48.042Z,80.8
2019-02-22T03:32:58.038Z,80.9
2019-02-22T03:34:07.813Z,80.61
2019-02-22T03:35:17.821Z,80.8
2019-02-22T03:36:27.518Z,80.8
2019-02-22T03:37:37.233Z,80.99
2019-02-22T03:38:47.192Z,81.19
2019-02-22T03:39:57.139Z,80.9
2019-02-22T03:41:06.582Z,80.9
2019-02-22T03:42:16.548Z,80.8
2019-02-22T03:43:26.487Z,80.51
2019-02-22T03:44:36.187Z,80.8
2019-02-22T03:45:45.895Z,80.71
2019-02-22T03:46:55.608Z,80.99
2019-02-22T03:48:05.566Z,80.71
2019-02-22T03:49:15.302Z,80.8
2019-02-22T03:50:25.066Z,80.9
2019-02-22T03:51:34.266Z,80.9
2019-02-22T03:52:43.719Z,81.48
2019-02-22T03:53:53.659Z,81.38
2019-02-22T03:55:05.284Z,81.09
2019-02-22T03:56:15.006Z,81.28
2019-02-22T03:57:24.975Z,81.28
2019-02-22T03:58:34.684Z,81.57
2019-02-22T03:59:44.640Z,81.28
2019-02-22T04:00:56.275Z,81.48
2019-02-22T04:02:06.265Z,81.67
2019-02-22T04:03:15.969Z,81.86
2019-02-22T04:04:25.954Z,81.57
2019-02-22T04:05:35.924Z,81.57
2019-02-22T04:06:45.627Z,81.48
2019-02-22T04:07:55.573Z,81.38
2019-02-22T04:09:05.289Z,82.05
2019-02-22T04:10:15.289Z,81.57
2019-02-22T04:11:25.253Z,81.19
2019-02-22T04:12:47.845Z,81.38
2019-02-22T04:13:57.544Z,81.57
2019-02-22T04:15:07.245Z,81.48
2019-02-22T04:16:16.970Z,81.57
2019-02-22T04:17:26.987Z,81.57
2019-02-22T04:18:36.455Z,81.86
2019-02-22T04:19:46.405Z,81.38
2019-02-22T04:20:56.344Z,82.34
2019-02-22T04:22:06.303Z,82.15
2019-02-22T04:23:16.272Z,82.24
2019-02-22T04:24:26.334Z,81.76
2019-02-22T04:25:36.089Z,82.34
2019-02-22T04:26:46.053Z,82.15
2019-02-22T04:27:55.795Z,82.15
2019-02-22T04:29:05.262Z,82.05
2019-02-22T04:30:14.712Z,81.86
2019-02-22T04:31:24.418Z,82.34
2019-02-22T04:32:34.170Z,82.24
2019-02-22T04:33:43.931Z,82.15
2019-02-22T04:34:53.879Z,82.24
2019-02-22T04:36:03.866Z,82.34
2019-02-22T04:37:13.863Z,82.34
2019-02-22T04:38:23.574Z,82.05
2019-02-22T04:39:33.023Z,82.05
2019-02-22T04:40:42.982Z,82.24
2019-02-22T04:42:00.672Z,82.1
2019-02-22T04:43:10.116Z,82.24
2019-02-22T04:44:20.069Z,82.24
2019-02-22T04:45:29.769Z,82.15
2019-02-22T04:46:39.792Z,82.05
2019-02-22T04:47:49.747Z,82.53
2019-02-22T04:48:59.461Z,82.63
2019-02-22T04:50:09.575Z,82.05
2019-02-22T04:51:19.019Z,82.24
2019-02-22T04:52:28.976Z,82.53
2019-02-22T04:53:38.446Z,82.43
2019-02-22T04:54:48.140Z,82.43
2019-02-22T04:55:58.128Z,82.53
2019-02-22T04:57:07.366Z,82.34
2019-02-22T04:58:17.421Z,82.53
2019-02-22T04:59:27.149Z,82.24
2019-02-22T05:00:37.100Z,82.43
2019-02-22T05:01:47.172Z,82.4
2019-02-22T05:02:57.116Z,82.34
2019-02-22T05:04:07.068Z,82.24
2019-02-22T05:05:16.513Z,82.34
2019-02-22T05:06:26.456Z,82.34
2019-02-22T05:07:36.401Z,82.34
2019-02-22T05:08:46.365Z,82.53
2019-02-22T05:09:55.812Z,82.43
2019-02-22T05:11:05.755Z,82.43
2019-02-22T05:12:15.447Z,82.53
2019-02-22T05:13:25.385Z,82.43
2019-02-22T05:14:35.106Z,82.4
2019-02-22T05:15:45.055Z,82.43
2019-02-22T05:16:54.745Z,82.53
2019-02-22T05:18:04.714Z,82.53
2019-02-22T05:19:14.657Z,82.49
2019-02-22T05:20:24.604Z,82.34
2019-02-22T05:21:34.134Z,82.4
2019-02-22T05:22:44.078Z,82.43
2019-02-22T05:24:05.973Z,82.34
2019-02-22T05:25:15.914Z,82.53
2019-02-22T05:26:25.362Z,82.05
2019-02-22T05:27:35.056Z,82.05
2019-02-22T05:28:45.007Z,82.24
2019-02-22T05:29:54.949Z,82.3
2019-02-22T05:31:04.453Z,82.24
2019-02-22T05:32:14.171Z,81.86
2019-02-22T05:33:23.615Z,82.2
2019-02-22T05:34:33.372Z,82.15
2019-02-22T05:35:43.056Z,81.92
2019-02-22T05:36:53.022Z,81.86
2019-02-22T05:38:02.987Z,82.34
2019-02-22T05:39:21.853Z,82.34
2019-02-22T05:40:31.553Z,82.1
2019-02-22T05:41:41.006Z,82.24
2019-02-22T05:42:50.717Z,82.2
2019-02-22T05:44:00.516Z,82.24
2019-02-22T05:45:10.488Z,82.68
2019-02-22T05:46:20.498Z,82.01
2019-02-22T05:47:30.186Z,82.05
2019-02-22T05:48:41.369Z,82.1
2019-02-22T05:49:51.080Z,82.34
2019-02-22T05:51:01.073Z,82.2
2019-02-22T05:52:10.807Z,81.92
2019-02-22T05:53:20.874Z,82.15
2019-02-22T05:54:30.832Z,81.96
2019-02-22T05:55:40.536Z,81.96
2019-02-22T05:56:54.780Z,81.38
2019-02-22T05:58:04.835Z,81.48
2019-02-22T05:59:14.779Z,81.48
2019-02-22T06:00:24.525Z,81.43
2019-02-22T06:01:34.579Z,81.48
2019-02-22T06:02:44.288Z,81.48
2019-02-22T06:03:54.010Z,81.38
2019-02-22T06:05:03.705Z,81.86
2019-02-22T06:06:12.929Z,81.76
2019-02-22T06:07:22.906Z,82.1
2019-02-22T06:08:32.982Z,82.15
2019-02-22T06:09:42.457Z,82.05
2019-02-22T06:10:52.413Z,82.05
2019-02-22T06:12:02.375Z,82.15
2019-02-22T06:13:12.086Z,82.24
2019-02-22T06:14:21.544Z,82.01
2019-02-22T06:15:33.918Z,82.34
2019-02-22T06:16:43.856Z,81.96
2019-02-22T06:17:53.588Z,81.48
2019-02-22T06:19:03.544Z,81.67
2019-02-22T06:20:13.531Z,81.48
2019-02-22T06:21:22.989Z,81.38
2019-02-22T06:22:32.701Z,81.57
2019-02-22T06:23:42.397Z,81.48
2019-02-22T06:24:52.435Z,81.38
2019-02-22T06:26:01.726Z,81.48
2019-02-22T06:27:11.718Z,80.99
2019-02-22T06:28:21.402Z,80.8
2019-02-22T06:29:31.092Z,80.9
2019-02-22T06:30:40.622Z,80.99
2019-02-22T06:31:50.945Z,80.9
2019-02-22T06:33:00.332Z,80.99
2019-02-22T06:34:09.794Z,80.71
2019-02-22T06:35:19.506Z,80.99
2019-02-22T06:36:28.949Z,80.99
2019-02-22T06:37:38.154Z,80.8
2019-02-22T06:38:49.208Z,80.22
2019-02-22T06:39:59.181Z,80.38
2019-02-22T06:41:08.900Z,79.99
2019-02-22T06:42:18.860Z,80.09
2019-02-22T06:43:28.304Z,79.84
2019-02-22T06:44:38.267Z,80.04
2019-02-22T06:45:48.097Z,80.42
2019-02-22T06:46:57.307Z,80.38
2019-02-22T06:48:07.086Z,80.13
2019-02-22T06:49:16.788Z,79.84
2019-02-22T06:50:36.356Z,79.84
2019-02-22T06:51:45.808Z,80.42
2019-02-22T06:52:55.377Z,80.42
2019-02-22T06:54:05.081Z,79.8
2019-02-22T06:55:15.057Z,79.8
2019-02-22T06:56:26.763Z,79.8
2019-02-22T06:57:36.825Z,79.94
2019-02-22T06:58:47.050Z,79.84
2019-02-22T06:59:56.755Z,79.71
2019-02-22T07:01:06.730Z,80.32
2019-02-22T07:02:16.426Z,80.47
2019-02-22T07:03:26.384Z,80.38
2019-02-22T07:04:36.357Z,80.51
2019-02-22T07:05:45.883Z,81.05
2019-02-22T07:06:55.323Z,81.15
2019-02-22T07:08:05.088Z,81.38
2019-02-22T07:09:14.537Z,81.48
2019-02-22T07:10:24.227Z,81.57
2019-02-22T07:11:33.925Z,81.48
2019-02-22T07:12:55.804Z,81.28
2019-02-22T07:14:06.165Z,81.48
2019-02-22T07:15:15.860Z,81.48
2019-02-22T07:16:25.570Z,80.9
2019-02-22T07:17:35.264Z,81.09
2019-02-22T07:18:44.702Z,80.8
2019-02-22T07:19:55.220Z,80.9
2019-02-22T07:21:05.168Z,81.19
2019-02-22T07:22:14.883Z,81.42
2019-02-22T07:23:24.573Z,79.98
2019-02-22T07:24:34.024Z,79.11
2019-02-22T07:25:43.748Z,78.25
2019-02-22T07:26:53.203Z,78.15
2019-02-22T07:28:02.641Z,77.48
2019-02-22T07:29:11.851Z,77.86
2019-02-22T07:30:21.293Z,77.67
2019-02-22T07:31:31.251Z,77.48
2019-02-22T07:32:41.476Z,76.71
2019-02-22T07:33:51.611Z,76.71
2019-02-22T07:35:01.053Z,76.9
2019-02-22T07:36:12.814Z,77
2019-02-22T07:37:22.778Z,76.61
2019-02-22T07:38:32.726Z,76.52
2019-02-22T07:39:42.415Z,76.32
2019-02-22T07:40:52.115Z,76.52
2019-02-22T07:42:01.554Z,77
2019-02-22T07:43:11.262Z,76.81
2019-02-22T07:44:20.955Z,77.48
2019-02-22T07:45:30.897Z,77.67
2019-02-22T07:46:40.345Z,78.15
2019-02-22T07:47:49.809Z,77.86
2019-02-22T07:48:59.337Z,78.34
2019-02-22T07:50:09.280Z,78.06
2019-02-22T07:51:19.266Z,78.09
2019-02-22T07:52:28.709Z,77.96
2019-02-22T07:53:38.673Z,78.53
2019-02-22T07:54:48.623Z,78.63
2019-02-22T07:55:57.822Z,78.48
2019-02-22T07:57:07.666Z,78.77
2019-02-22T07:58:17.613Z,78.67
2019-02-22T07:59:27.180Z,79.05
2019-02-22T08:00:37.145Z,79.11
2019-02-22T08:01:50.531Z,78.83
2019-02-22T08:03:00.467Z,79.3
2019-02-22T08:04:09.902Z,79.4
2019-02-22T08:05:19.629Z,79.53
2019-02-22T08:06:29.378Z,79.4
2019-02-22T08:07:39.418Z,79.4
2019-02-22T08:08:50.850Z,79.5
2019-02-22T08:10:00.344Z,79.3
2019-02-22T08:11:09.812Z,79.69
2019-02-22T08:12:19.767Z,79.69
2019-02-22T08:13:29.474Z,79.69
2019-02-22T08:14:38.938Z,79.6
2019-02-22T08:15:48.631Z,79.69
2019-02-22T08:16:58.331Z,79.6
2019-02-22T08:18:08.287Z,79.5
2019-02-22T08:19:17.471Z,79.4
2019-02-22T08:20:27.415Z,79.5
2019-02-22T08:21:37.104Z,79.5
2019-02-22T08:22:47.053Z,79.79
2019-02-22T08:23:56.758Z,79.5
2019-02-22T08:25:06.725Z,79.5
2019-02-22T08:26:16.415Z,79.79
2019-02-22T08:27:26.122Z,79.79
2019-02-22T08:28:36.073Z,79.79
2019-02-22T08:29:45.271Z,79.3
2019-02-22T08:30:54.980Z,79.5
2019-02-22T08:32:04.707Z,79.5
2019-02-22T08:33:14.433Z,79.6
2019-02-22T08:34:24.135Z,79.79
2019-02-22T08:35:34.106Z,79.79
2019-02-22T08:36:43.801Z,79.5
2019-02-22T08:37:53.253Z,79.5
2019-02-22T08:39:03.047Z,79.5
2019-02-22T08:40:12.992Z,79.5
2019-02-22T08:41:22.510Z,79.6
2019-02-22T08:42:31.961Z,79.69
2019-02-22T08:43:41.424Z,80.17
2019-02-22T08:44:51.342Z,80.07
2019-02-22T08:46:01.290Z,80.07
2019-02-22T08:47:11.243Z,80.17
2019-02-22T08:48:20.693Z,80.46
2019-02-22T08:49:30.625Z,80.65
2019-02-22T08:50:39.890Z,80.94
2019-02-22T08:51:49.834Z,80.94
2019-02-22T08:52:59.785Z,80.94
2019-02-22T08:54:09.495Z,81.04
2019-02-22T08:55:19.477Z,80.94
2019-02-22T08:56:28.916Z,81.13
2019-02-22T08:57:38.631Z,80.94
2019-02-22T08:58:48.329Z,81.04
2019-02-22T08:59:58.020Z,80.46
2019-02-22T09:01:07.507Z,80.55
2019-02-22T09:02:17.201Z,80.65
2019-02-22T09:03:26.404Z,80.75
2019-02-22T09:04:35.880Z,80.36
2019-02-22T09:05:45.588Z,80.94
2019-02-22T09:06:55.485Z,81.04
2019-02-22T09:08:05.175Z,81.13
2019-02-22T09:09:15.122Z,80.94
2019-02-22T09:10:25.180Z,80.94
2019-02-22T09:11:34.621Z,80.94
2019-02-22T09:12:44.565Z,80.36
2019-02-22T09:13:54.494Z,81.13
2019-02-22T09:15:04.186Z,80.46
2019-02-22T09:16:14.125Z,80.21
2019-02-22T09:17:24.063Z,80.21
2019-02-22T09:18:33.778Z,79.63
2019-02-22T09:19:43.249Z,80.21
2019-02-22T09:20:52.946Z,80.11
2019-02-22T09:22:02.645Z,80.46
2019-02-22T09:23:12.631Z,80.36
2019-02-22T09:24:22.332Z,80.4
2019-02-22T09:25:32.048Z,80.55
2019-02-22T09:26:42.012Z,80.55
2019-02-22T09:27:52.027Z,80.55
2019-02-22T09:29:01.718Z,81.07
2019-02-22T09:30:11.418Z,80.84
2019-02-22T09:31:21.116Z,80.94
2019-02-22T09:32:30.800Z,81.13
2019-02-22T09:33:40.652Z,80.94
2019-02-22T09:34:50.875Z,80.88
2019-02-22T09:36:00.329Z,80.98
2019-02-22T09:37:10.296Z,80.98
2019-02-22T09:38:19.995Z,81.23
2019-02-22T09:39:29.688Z,80.79
2019-02-22T09:40:39.747Z,81.04
2019-02-22T09:41:49.733Z,81.13
2019-02-22T09:42:59.420Z,80.94
2019-02-22T09:44:09.116Z,81.04
2019-02-22T09:45:19.077Z,80.98
2019-02-22T09:46:29.939Z,81.56
2019-02-22T09:47:39.397Z,81.46
2019-02-22T09:48:49.461Z,81.84
2019-02-22T09:49:59.405Z,81.42
2019-02-22T09:51:08.849Z,81.42
2019-02-22T09:52:18.545Z,81.56
2019-02-22T09:53:28.240Z,81.52
2019-02-22T09:54:37.471Z,81.46
2019-02-22T09:55:47.173Z,82.14
2019-02-22T09:56:57.130Z,82.04
2019-02-22T09:58:09.574Z,81.99
2019-02-22T09:59:19.261Z,81.81
2019-02-22T10:00:28.453Z,82.29
2019-02-22T10:01:38.148Z,82.48
2019-02-22T10:02:48.092Z,83.06
2019-02-22T10:03:57.532Z,83.06
2019-02-22T10:05:07.245Z,83.25
2019-02-22T10:06:16.954Z,83.44
2019-02-22T10:07:26.891Z,83.53
2019-02-22T10:08:36.360Z,83.53
2019-02-22T10:09:46.054Z,83.53
2019-02-22T10:10:55.991Z,83.44
2019-02-22T10:12:05.693Z,83.83
2019-02-22T10:13:15.128Z,83.83
2019-02-22T10:14:24.839Z,83.83
2019-02-22T10:15:35.961Z,83.44
2019-02-22T10:16:45.704Z,83.63
2019-02-22T10:17:55.644Z,83.63
2019-02-22T10:19:05.088Z,83.92
2019-02-22T10:20:14.550Z,83.63
2019-02-22T10:21:23.987Z,83.15
2019-02-22T10:22:33.431Z,83.44
2019-02-22T10:23:42.886Z,82.76
2019-02-22T10:24:52.817Z,83.25
2019-02-22T10:26:02.758Z,82.86
2019-02-22T10:27:14.640Z,82.86
2019-02-22T10:28:24.606Z,82.57
2019-02-22T10:29:34.590Z,82.48
2019-02-22T10:30:44.052Z,82.48
2019-02-22T10:31:53.740Z,82.38
2019-02-22T10:33:03.188Z,82.48
2019-02-22T10:34:13.124Z,82.38
2019-02-22T10:35:23.079Z,82.48
2019-02-22T10:36:32.527Z,82.09
2019-02-22T10:37:52.737Z,82.19
2019-02-22T10:39:02.194Z,81.42
2019-02-22T10:40:13.711Z,82.09
2019-02-22T10:41:23.659Z,81.99
2019-02-22T10:42:33.610Z,81.81
2019-02-22T10:43:42.803Z,82.14
2019-02-22T10:44:52.511Z,81.99
2019-02-22T10:46:01.948Z,81.71
2019-02-22T10:47:11.647Z,81.84
2019-02-22T10:48:21.335Z,81.42
2019-02-22T10:49:31.032Z,81.52
2019-02-22T10:50:40.975Z,81.65
2019-02-22T10:51:50.718Z,81.52
2019-02-22T10:53:04.718Z,81.61
2019-02-22T10:54:14.419Z,81.42
2019-02-22T10:55:24.437Z,81.42
2019-02-22T10:56:33.901Z,81.37
2019-02-22T10:57:44.617Z,80.79
2019-02-22T10:58:54.768Z,81.04
2019-02-22T11:00:04.222Z,80.84
2019-02-22T11:01:13.678Z,81.13
2019-02-22T11:02:23.361Z,80.94
2019-02-22T11:03:34.300Z,81.42
2019-02-22T11:04:44.263Z,80.84
2019-02-22T11:05:53.710Z,80.98
2019-02-22T11:07:03.693Z,80.5
2019-02-22T11:08:13.396Z,80.3
2019-02-22T11:09:23.096Z,80.69
2019-02-22T11:10:32.291Z,80.5
2019-02-22T11:11:41.990Z,80.21
2019-02-22T11:12:51.436Z,80.11
2019-02-22T11:14:01.139Z,79.92
2019-02-22T11:15:10.578Z,79.92
2019-02-22T11:16:20.617Z,80.02
2019-02-22T11:17:30.603Z,79.82
2019-02-22T11:18:41.930Z,80.02
2019-02-22T11:19:51.913Z,80.02
2019-02-22T11:21:01.855Z,79.73
2019-02-22T11:22:11.300Z,79.63
2019-02-22T11:23:21.266Z,79.53
2019-02-22T11:24:30.957Z,79.73
2019-02-22T11:25:40.900Z,79.73
2019-02-22T11:26:50.907Z,79.63
2019-02-22T11:28:00.586Z,78.96
2019-02-22T11:29:10.284Z,79.35
2019-02-22T11:30:20.033Z,78.96
2019-02-22T11:31:29.744Z,79.05
2019-02-22T11:32:39.456Z,78.67
2019-02-22T11:33:49.177Z,78.86
2019-02-22T11:34:59.123Z,78.77
2019-02-22T11:36:08.815Z,79.05
2019-02-22T11:37:18.273Z,78.58
2019-02-22T11:38:27.973Z,78.67
2019-02-22T11:39:37.410Z,78.96
2019-02-22T11:40:47.361Z,78.67
2019-02-22T11:41:57.303Z,78.58
2019-02-22T11:43:07.239Z,78.67
2019-02-22T11:44:16.928Z,78.19
2019-02-22T11:45:26.860Z,78.58
2019-02-22T11:46:36.552Z,78.77
2019-02-22T11:47:46.235Z,78.09
2019-02-22T11:48:55.440Z,78
2019-02-22T11:50:04.938Z,78
2019-02-22T11:51:14.724Z,78.19
2019-02-22T11:52:23.936Z,78.19
2019-02-22T11:53:33.878Z,78
2019-02-22T11:54:43.577Z,78.28
2019-02-22T11:55:53.401Z,77.61
2019-02-22T11:57:03.384Z,77.81
2019-02-22T11:58:13.331Z,78.19
2019-02-22T11:59:23.022Z,78.09
2019-02-22T12:00:32.729Z,78.19
2019-02-22T12:01:42.675Z,78.19
2019-02-22T12:02:52.612Z,78
2019-02-22T12:04:18.647Z,77.81
2019-02-22T12:05:28.346Z,78
2019-02-22T12:06:38.046Z,78.09
2019-02-22T12:07:48.190Z,78.19
2019-02-22T12:08:57.935Z,78
2019-02-22T12:10:07.960Z,77.9
2019-02-22T12:11:17.913Z,77.96
2019-02-22T12:12:27.871Z,77.71
2019-02-22T12:13:37.313Z,78.09
2019-02-22T12:14:54.517Z,78
2019-02-22T12:16:04.487Z,78
2019-02-22T12:17:13.945Z,78.19
2019-02-22T12:18:23.897Z,78.09
2019-02-22T12:19:33.340Z,77.9
2019-02-22T12:20:43.282Z,78.86
2019-02-22T12:21:53.464Z,78.58
2019-02-22T12:23:03.169Z,79.05
2019-02-22T12:24:13.112Z,78.86
2019-02-22T12:25:23.313Z,78.86
2019-02-22T12:26:34.410Z,78.58
2019-02-22T12:27:44.397Z,78.77
2019-02-22T12:28:54.345Z,78.48
2019-02-22T12:30:04.306Z,78.86
2019-02-22T12:31:14.265Z,78.67
2019-02-22T12:32:23.712Z,78.77
2019-02-22T12:33:33.406Z,78.77
2019-02-22T12:34:42.630Z,78.86
2019-02-22T12:35:52.574Z,79.05
2019-02-22T12:37:02.121Z,78.86
2019-02-22T12:38:12.075Z,78.96
2019-02-22T12:39:22.131Z,78.96
2019-02-22T12:40:31.621Z,79.05
2019-02-22T12:41:41.317Z,78.67
2019-02-22T12:42:51.273Z,79.05
2019-02-22T12:44:02.529Z,79.15
2019-02-22T12:45:12.352Z,79.82
2019-02-22T12:46:22.301Z,79.63
2019-02-22T12:47:32.071Z,80.02
2019-02-22T12:48:41.775Z,79.73
2019-02-22T12:49:51.479Z,79.63
2019-02-22T12:51:01.484Z,80.21
2019-02-22T12:52:11.202Z,80.21
2019-02-22T12:53:21.160Z,80.21
2019-02-22T12:54:30.858Z,79.92
2019-02-22T12:55:40.312Z,79.73
2019-02-22T12:57:00.221Z,79.73
2019-02-22T12:58:09.923Z,79.35
2019-02-22T12:59:19.134Z,79.63
2019-02-22T13:00:28.572Z,79.35
2019-02-22T13:01:38.278Z,79.53
2019-02-22T13:02:48.236Z,78.86
2019-02-22T13:04:08.587Z,78.48
2019-02-22T13:05:18.592Z,78.67
2019-02-22T13:06:28.295Z,78.67
2019-02-22T13:07:37.987Z,78.28
2019-02-22T13:08:47.481Z,78.19
2019-02-22T13:09:57.423Z,78.03
2019-02-22T13:11:07.376Z,77.9
2019-02-22T13:12:19.691Z,77.9
2019-02-22T13:13:29.129Z,78.19
2019-02-22T13:14:39.075Z,77.61
2019-02-22T13:15:49.017Z,77.65
2019-02-22T13:16:58.971Z,77.46
2019-02-22T13:18:09.002Z,77.65
2019-02-22T13:19:18.694Z,77.56
2019-02-22T13:20:28.553Z,77.65
2019-02-22T13:21:37.756Z,77.56
2019-02-22T13:22:47.475Z,77.56
2019-02-22T13:23:59.789Z,77.65
2019-02-22T13:25:09.790Z,77.75
2019-02-22T13:26:20.254Z,77.65
2019-02-22T13:27:29.214Z,77.46
2019-02-22T13:28:38.692Z,77.51
2019-02-22T13:29:48.259Z,77.75
2019-02-22T13:30:57.986Z,77.9
2019-02-22T13:32:07.695Z,77.71
2019-02-22T13:33:17.473Z,78.23
2019-02-22T13:34:27.430Z,78.38
2019-02-22T13:35:37.136Z,78.38
2019-02-22T13:36:47.206Z,78.23
2019-02-22T13:37:57.194Z,78.38
2019-02-22T13:39:07.147Z,79.05
2019-02-22T13:40:16.610Z,78.48
2019-02-22T13:41:26.326Z,78.67
2019-02-22T13:42:36.021Z,78.86
2019-02-22T13:43:45.794Z,78.71
2019-02-22T13:44:55.746Z,78.77
2019-02-22T13:46:05.446Z,78.86
2019-02-22T13:47:14.885Z,78.86
2019-02-22T13:48:24.843Z,78.86
2019-02-22T13:49:34.584Z,78.61
2019-02-22T13:50:44.397Z,78.9
2019-02-22T13:51:54.107Z,77.9
2019-02-22T13:53:03.827Z,78.52
2019-02-22T13:54:13.519Z,78.28
2019-02-22T13:55:23.309Z,78.19
2019-02-22T13:56:32.779Z,78.38
2019-02-22T13:57:42.742Z,78.19
2019-02-22T13:58:52.450Z,78.58
2019-02-22T14:00:02.142Z,78.19
2019-02-22T14:01:12.080Z,78
2019-02-22T14:02:22.019Z,78
2019-02-22T14:03:31.710Z,78.19
2019-02-22T14:04:41.663Z,78
2019-02-22T14:05:51.611Z,78
2019-02-22T14:07:01.562Z,78.09
2019-02-22T14:08:11.102Z,73.77
2019-02-22T14:09:20.593Z,81.3
2019-02-22T14:10:30.046Z,80.03
2019-02-22T14:11:39.744Z,80.32
2019-02-22T14:12:49.533Z,85.16
2019-02-22T14:13:59.502Z,86.45
2019-02-22T14:15:09.448Z,85.88
2019-02-22T14:16:21.708Z,85.53
2019-02-22T14:17:31.417Z,84.42
2019-02-22T14:18:41.118Z,83.8
2019-02-22T14:19:50.808Z,82.93
2019-02-22T14:21:00.814Z,81.92
2019-02-22T14:22:10.261Z,81.34
2019-02-22T14:23:19.780Z,81.67
2019-02-22T14:24:29.474Z,81.19
2019-02-22T14:25:39.181Z,80.9
2019-02-22T14:26:48.884Z,80.8
2019-02-22T14:27:58.577Z,80.55
2019-02-22T14:29:08.285Z,80.36
2019-02-22T14:30:17.987Z,80.07
2019-02-22T14:31:27.684Z,80.27
2019-02-22T14:32:37.198Z,79.88
2019-02-22T14:33:46.644Z,79.69
2019-02-22T14:34:56.584Z,79.69
2019-02-22T14:36:06.025Z,79.69
2019-02-22T14:37:15.744Z,79.3
2019-02-22T14:38:26.124Z,79.4
2019-02-22T14:39:38.625Z,79.6
2019-02-22T14:40:48.877Z,79.5
2019-02-22T14:41:58.831Z,79.4
2019-02-22T14:43:18.979Z,79.6
2019-02-22T14:44:28.932Z,79.4
2019-02-22T14:45:48.735Z,79.6
2019-02-22T14:47:00.832Z,79.79
2019-02-22T14:48:10.774Z,79.6
2019-02-22T14:49:20.218Z,79.6
2019-02-22T14:50:29.912Z,79.69
2019-02-22T14:51:39.110Z,79.79
2019-02-22T14:52:48.809Z,79.6
2019-02-22T14:53:58.755Z,79.69
2019-02-22T14:55:08.692Z,79.02
2019-02-22T14:56:18.656Z,79.6
2019-02-22T14:57:27.853Z,79.5
2019-02-22T14:58:37.292Z,79.5
2019-02-22T14:59:49.043Z,79.4
2019-02-22T15:00:58.745Z,79.4
2019-02-22T15:02:08.690Z,79.5
2019-02-22T15:03:18.389Z,79.3
2019-02-22T15:04:28.334Z,79.5
2019-02-22T15:05:38.973Z,79.3
2019-02-22T15:06:48.416Z,79.5
2019-02-22T15:07:58.359Z,79.6